Airfield :
LOGIN :

Register | Disclaimer

   EN    FR    IT 

 










Legend :    VFR   Marginal VFR   IFR   Intensive IFR   Very Intensive IFR
Visi :
Ceiling :
>= 8 km
>= 3000ft
5 to 8 km
1000 to 3000 ft
1500m to 5 km
500 to 1000 ft
800 to 1500m
200 to 500 ft
< 800m
< 200 ft
Symbols :   Thunderstorms  Fog  Heavy snow  Heavy precipitations  Wind > 20 kt
SIGMETs :     Misc.  Thunderstorms  Icing  Turbulence  Mountain Waves  Volcanic Ashes







- Airport Elevation : 424 ft
- IATA code : QGY


LHPR - Györ Per

CURRENT METAR :
  • 200015Z AUTO 27006KT 3600 BR NSC 08/08 Q1023 RMK YLO

EXPIRED METARs :
  • 192345Z AUTO 27007KT 4100 BR NCD 09/08 Q1023 RMK GRN
  • 192315Z AUTO 27008KT 5000 BR NSC 10/09 Q1022 RMK WHT
  • 192245Z AUTO 27007KT 4400 BR NSC 08/08 Q1022 RMK GRN
  • 192215Z AUTO 26005KT 4600 BR NCD 08/08 Q1022 RMK GRN

TAF AMD TAF LHPR
Valid from the 19 at 21:00 until the 20 at 03:00 UTC


192100Z 1921/2003 VRB03KT 5000 BR NSC
TEMPO 1921/2003 2000 BR
PROB30
TEMPO 1923/2003 0600 FG BKN001
No reported NOTAMs for that airfield.



MET'MAP, your aeronautical weather chart ! - Copyright ORBIFLY December 2007 - Disclaimer

ORBIFLY MET'MAP TEAM :

Programming & Development : Alexandra Zaïnal
Concept & Development : Baudouin d'Aumeries
Co-Development & Prog : Marc-Olivier Méhu
Technical & hardware support : Manuel Goepfert

Contact : metmap@orbifly.com




SOURCES & CREDITS :

   NOAA